San Francisco, CA (94139)

11:06 PM PST on February 13, 2016 (GMT -0800)
Weather Underground HQ - Dyacon | | Change Station
CLOSE
Current Station
Personal Weather Station
Location: San Francisco, CA
Elevation: 180 ft
Nearby Weather Stations

Elev 180 ft 37.79 °N, 122.40 °W | Updated 6 minutes ago

Partly Cloudy
Partly Cloudy
58.1 °F
Feels Like 58.1 °F
N
1.3
Wind Variable Wind from NE

Today
High -- | Low -- °F
--% Chance of Precip.
Yesterday
High -- | Low -- °F
Precip. -- in
Pressure 30.30 in
Visibility 10.0 miles
Clouds Few 20000 ft
Dew Point 51 °F
Humidity 77%
Rainfall 0.00 in
Snow Depth Not available.
7:02 AM 5:46 PM
Waxing Crescent, 38% visible
METAR KOAK 140653Z 08003KT 10SM FEW200 11/09 A3031 RMK AO2 SLP261 T01110089
Pressure 30.30 in
Visibility 10.0 miles
Clouds Few 20000 ft
Dew Point 51 °F
Humidity 77%
Rainfall 0.00 in
Snow Depth Not available.
7:02 AM 5:46 PM
Waxing Crescent, 38% visible
METAR KOAK 140653Z 08003KT 10SM FEW200 11/09 A3031 RMK AO2 SLP261 T01110089

10-Day Weather Forecast

Almanac

Astronomy

Feb. 13, 2016 Rise Set
Actual Time
Civil Twilight
Nautical Twilight
Astronomical Twilight
Moon
Length of Visible Light
Length of Day
Tomorrow will be .
, % of the Moon is Illuminated

Today's Extremes

State Highs State Lows

Community

WunderPhotos

Upload Photos

1,892,757 photos uploaded!

WunderBlog® & News

Nearby

Air Quality

  Air Quality AQ Index Pollutant
Not available.

Snow Depth

Station Depth Elevation

Earthquake Activity

City Distance Mag. Time & Date
Minimum magnitude displayed is 2.5.

Coastal Water Temperatures

Place Temperature

Stations

Nearby Weather Stations

Station Location Temp. Windchill Dew Point Humidity Wind Precip. Elev Updated Type
                   

Watches & Warnings

There are currently no watches in effect.